sensor_id;sensor_type;location;lat;lon;timestamp;pressure;altitude;pressure_sealevel;temperature;humidity
19890;BME280;10107;51.198;6.824;2023-11-19T00:02:34;-21561.81;;;9.23;100.00
19890;BME280;10107;51.198;6.824;2023-11-19T00:06:37;-21562.88;;;9.27;100.00
19890;BME280;10107;51.198;6.824;2023-11-19T00:10:39;-21565.41;;;9.37;100.00
19890;BME280;10107;51.198;6.824;2023-11-19T00:14:40;-21568.19;;;9.48;100.00
19890;BME280;10107;51.198;6.824;2023-11-19T00:18:42;-21569.91;;;9.55;100.00
19890;BME280;10107;51.198;6.824;2023-11-19T00:22:45;-21570.84;;;9.58;100.00
19890;BME280;10107;51.198;6.824;2023-11-19T00:26:48;-21572.56;;;9.65;100.00
19890;BME280;10107;51.198;6.824;2023-11-19T00:30:50;-21574.97;;;9.74;100.00
19890;BME280;10107;51.198;6.824;2023-11-19T00:34:52;-21575.34;;;9.76;100.00
19890;BME280;10107;51.198;6.824;2023-11-19T00:38:54;-21576.41;;;9.80;100.00
19890;BME280;10107;51.198;6.824;2023-11-19T00:42:57;-21576.56;;;9.80;100.00
19890;BME280;10107;51.198;6.824;2023-11-19T00:46:58;-21577.75;;;9.85;100.00
19890;BME280;10107;51.198;6.824;2023-11-19T00:51:01;-21577.47;;;9.84;100.00
19890;BME280;10107;51.198;6.824;2023-11-19T00:55:05;-21578.94;;;9.89;100.00
19890;BME280;10107;51.198;6.824;2023-11-19T00:59:07;-21581.47;;;9.99;100.00
19890;BME280;10107;51.198;6.824;2023-11-19T01:03:08;-21585.03;;;10.13;100.00
19890;BME280;10107;51.198;6.824;2023-11-19T01:07:10;-21588.22;;;10.25;100.00
19890;BME280;10107;51.198;6.824;2023-11-19T01:11:20;-21592.34;;;10.41;100.00
19890;BME280;10107;51.198;6.824;2023-11-19T01:15:22;-21593.91;;;10.47;100.00
19890;BME280;10107;51.198;6.824;2023-11-19T01:19:24;-21596.69;;;10.58;100.00
19890;BME280;10107;51.198;6.824;2023-11-19T01:23:26;-21598.44;;;10.65;100.00
19890;BME280;10107;51.198;6.824;2023-11-19T01:27:30;-21600.28;;;10.72;100.00
19890;BME280;10107;51.198;6.824;2023-11-19T01:31:31;-21601.88;;;10.78;100.00
19890;BME280;10107;51.198;6.824;2023-11-19T01:35:34;-21603.72;;;10.85;100.00
19890;BME280;10107;51.198;6.824;2023-11-19T01:39:35;-21604.78;;;10.89;100.00
19890;BME280;10107;51.198;6.824;2023-11-19T01:43:39;-21604.91;;;10.90;100.00
19890;BME280;10107;51.198;6.824;2023-11-19T01:47:42;-21605.97;;;10.94;100.00
19890;BME280;10107;51.198;6.824;2023-11-19T01:51:45;-21607.28;;;10.99;100.00
19890;BME280;10107;51.198;6.824;2023-11-19T01:55:49;-21607.81;;;11.01;100.00
19890;BME280;10107;51.198;6.824;2023-11-19T01:59:54;-21608.63;;;11.04;100.00
19890;BME280;10107;51.198;6.824;2023-11-19T02:03:56;-21608.50;;;11.04;100.00
19890;BME280;10107;51.198;6.824;2023-11-19T02:07:58;-21608.75;;;11.05;100.00
19890;BME280;10107;51.198;6.824;2023-11-19T02:12:00;-21608.63;;;11.04;100.00
19890;BME280;10107;51.198;6.824;2023-11-19T02:16:04;-21610.06;;;11.10;100.00
19890;BME280;10107;51.198;6.824;2023-11-19T02:20:06;-21608.75;;;11.05;100.00
19890;BME280;10107;51.198;6.824;2023-11-19T02:24:10;-21609.53;;;11.08;100.00
19890;BME280;10107;51.198;6.824;2023-11-19T02:28:14;-21609.41;;;11.07;100.00
19890;BME280;10107;51.198;6.824;2023-11-19T02:32:16;-21610.88;;;11.13;100.00
19890;BME280;10107;51.198;6.824;2023-11-19T02:36:18;-21612.59;;;11.20;100.00
19890;BME280;10107;51.198;6.824;2023-11-19T02:40:22;-21612.84;;;11.21;100.00
19890;BME280;10107;51.198;6.824;2023-11-19T02:44:25;-21613.91;;;11.25;100.00
19890;BME280;10107;51.198;6.824;2023-11-19T02:48:29;-21613.91;;;11.25;100.00
19890;BME280;10107;51.198;6.824;2023-11-19T02:52:31;-21614.72;;;11.28;100.00
19890;BME280;10107;51.198;6.824;2023-11-19T02:56:37;-21613.78;;;11.24;100.00
19890;BME280;10107;51.198;6.824;2023-11-19T03:00:41;-21612.84;;;11.21;100.00
19890;BME280;10107;51.198;6.824;2023-11-19T03:04:49;-21612.84;;;11.21;100.00
19890;BME280;10107;51.198;6.824;2023-11-19T03:08:50;-21615.63;;;11.32;100.00
19890;BME280;10107;51.198;6.824;2023-11-19T03:12:52;-21616.28;;;11.34;100.00
19890;BME280;10107;51.198;6.824;2023-11-19T03:16:57;-21618.53;;;11.43;100.00
19890;BME280;10107;51.198;6.824;2023-11-19T03:20:58;-21619.19;;;11.45;100.00
19890;BME280;10107;51.198;6.824;2023-11-19T03:25:00;-21619.88;;;11.48;100.00
19890;BME280;10107;51.198;6.824;2023-11-19T03:29:01;-21619.88;;;11.48;100.00
19890;BME280;10107;51.198;6.824;2023-11-19T03:33:04;-21620.00;;;11.48;100.00
19890;BME280;10107;51.198;6.824;2023-11-19T03:37:06;-21620.41;;;11.50;100.00
19890;BME280;10107;51.198;6.824;2023-11-19T03:41:12;-21620.66;;;11.51;100.00
19890;BME280;10107;51.198;6.824;2023-11-19T03:45:13;-21620.91;;;11.52;100.00
19890;BME280;10107;51.198;6.824;2023-11-19T03:49:18;-21621.44;;;11.54;100.00
19890;BME280;10107;51.198;6.824;2023-11-19T03:53:19;-21622.38;;;11.58;100.00
19890;BME280;10107;51.198;6.824;2023-11-19T03:57:21;-21622.25;;;11.57;100.00
19890;BME280;10107;51.198;6.824;2023-11-19T04:01:23;-21622.25;;;11.57;100.00
19890;BME280;10107;51.198;6.824;2023-11-19T04:05:25;-21622.25;;;11.57;100.00
19890;BME280;10107;51.198;6.824;2023-11-19T04:09:27;-21621.19;;;11.53;100.00
19890;BME280;10107;51.198;6.824;2023-11-19T04:13:29;-21618.00;;;11.41;100.00
19890;BME280;10107;51.198;6.824;2023-11-19T04:17:30;-21615.38;;;11.30;100.00
19890;BME280;10107;51.198;6.824;2023-11-19T04:21:33;-21613.91;;;11.25;100.00
19890;BME280;10107;51.198;6.824;2023-11-19T04:25:35;-21613.78;;;11.24;100.00
19890;BME280;10107;51.198;6.824;2023-11-19T04:29:37;-21613.13;;;11.22;100.00
19890;BME280;10107;51.198;6.824;2023-11-19T04:33:38;-21612.84;;;11.21;100.00
19890;BME280;10107;51.198;6.824;2023-11-19T04:37:42;-21613.78;;;11.24;100.00
19890;BME280;10107;51.198;6.824;2023-11-19T04:41:48;-21612.84;;;11.21;100.00
19890;BME280;10107;51.198;6.824;2023-11-19T04:45:49;-21610.88;;;11.13;100.00
19890;BME280;10107;51.198;6.824;2023-11-19T04:49:51;-21609.28;;;11.07;100.00
19890;BME280;10107;51.198;6.824;2023-11-19T04:53:54;-21608.09;;;11.02;100.00
19890;BME280;10107;51.198;6.824;2023-11-19T04:57:56;-21607.03;;;10.98;100.00
19890;BME280;10107;51.198;6.824;2023-11-19T05:01:58;-21605.03;;;10.90;100.00
19890;BME280;10107;51.198;6.824;2023-11-19T05:05:59;-21604.78;;;10.89;100.00
19890;BME280;10107;51.198;6.824;2023-11-19T05:10:03;-21604.38;;;10.88;100.00
19890;BME280;10107;51.198;6.824;2023-11-19T05:14:06;-21604.00;;;10.86;100.00
19890;BME280;10107;51.198;6.824;2023-11-19T05:18:09;-21605.72;;;10.93;100.00
19890;BME280;10107;51.198;6.824;2023-11-19T05:22:11;-21606.91;;;10.98;100.00
19890;BME280;10107;51.198;6.824;2023-11-19T05:26:18;-21605.31;;;10.92;100.00
19890;BME280;10107;51.198;6.824;2023-11-19T05:30:21;-21603.31;;;10.84;100.00
19890;BME280;10107;51.198;6.824;2023-11-19T05:34:23;-21601.59;;;10.77;100.00
19890;BME280;10107;51.198;6.824;2023-11-19T05:38:25;-21600.00;;;10.71;100.00
19890;BME280;10107;51.198;6.824;2023-11-19T05:42:28;-21601.72;;;10.78;100.00
19890;BME280;10107;51.198;6.824;2023-11-19T05:46:30;-21603.06;;;10.83;100.00
19890;BME280;10107;51.198;6.824;2023-11-19T05:50:32;-21604.38;;;10.88;100.00
19890;BME280;10107;51.198;6.824;2023-11-19T05:54:33;-21603.47;;;10.84;100.00
19890;BME280;10107;51.198;6.824;2023-11-19T05:58:39;-21604.38;;;10.88;100.00
19890;BME280;10107;51.198;6.824;2023-11-19T06:02:40;-21605.84;;;10.94;100.00
19890;BME280;10107;51.198;6.824;2023-11-19T06:06:43;-21606.63;;;10.97;100.00
19890;BME280;10107;51.198;6.824;2023-11-19T06:10:44;-21605.44;;;10.92;100.00
19890;BME280;10107;51.198;6.824;2023-11-19T06:14:48;-21603.47;;;10.84;100.00
19890;BME280;10107;51.198;6.824;2023-11-19T06:18:50;-21602.13;;;10.79;100.00
19890;BME280;10107;51.198;6.824;2023-11-19T06:22:51;-21600.94;;;10.75;100.00
19890;BME280;10107;51.198;6.824;2023-11-19T06:26:53;-21598.03;;;10.63;100.00
19890;BME280;10107;51.198;6.824;2023-11-19T06:30:56;-21595.25;;;10.53;100.00
19890;BME280;10107;51.198;6.824;2023-11-19T06:34:58;-21594.84;;;10.51;100.00
19890;BME280;10107;51.198;6.824;2023-11-19T06:39:00;-21595.25;;;10.53;100.00
19890;BME280;10107;51.198;6.824;2023-11-19T06:43:01;-21594.84;;;10.51;100.00
19890;BME280;10107;51.198;6.824;2023-11-19T06:47:05;-21593.38;;;10.45;100.00
19890;BME280;10107;51.198;6.824;2023-11-19T06:51:06;-21592.06;;;10.40;100.00
19890;BME280;10107;51.198;6.824;2023-11-19T06:55:08;-21591.13;;;10.37;100.00
19890;BME280;10107;51.198;6.824;2023-11-19T06:59:10;-21590.59;;;10.35;100.00
19890;BME280;10107;51.198;6.824;2023-11-19T07:03:13;-21589.41;;;10.30;100.00
19890;BME280;10107;51.198;6.824;2023-11-19T07:07:14;-21589.00;;;10.28;100.00
19890;BME280;10107;51.198;6.824;2023-11-19T07:11:16;-21587.81;;;10.24;100.00
19890;BME280;10107;51.198;6.824;2023-11-19T07:15:18;-21589.41;;;10.30;100.00
19890;BME280;10107;51.198;6.824;2023-11-19T07:19:21;-21590.47;;;10.34;100.00
19890;BME280;10107;51.198;6.824;2023-11-19T07:23:22;-21592.06;;;10.40;100.00
19890;BME280;10107;51.198;6.824;2023-11-19T07:27:24;-21595.25;;;10.53;100.00
19890;BME280;10107;51.198;6.824;2023-11-19T07:31:25;-21599.34;;;10.68;100.00
19890;BME280;10107;51.198;6.824;2023-11-19T07:35:29;-21614.84;;;11.28;100.00
19890;BME280;10107;51.198;6.824;2023-11-19T07:39:31;-21641.69;;;12.33;100.00
19890;BME280;10107;51.198;6.824;2023-11-19T07:43:34;-21672.16;;;13.51;100.00
19890;BME280;10107;51.198;6.824;2023-11-19T07:47:36;-21666.88;;;13.31;100.00
19890;BME280;10107;51.198;6.824;2023-11-19T07:51:40;-21646.56;;;12.52;100.00
19890;BME280;10107;51.198;6.824;2023-11-19T07:55:42;-21636.41;;;12.12;100.00
19890;BME280;10107;51.198;6.824;2023-11-19T07:59:44;-21633.88;;;12.02;100.00
19890;BME280;10107;51.198;6.824;2023-11-19T08:03:46;-21634.69;;;12.05;100.00
19890;BME280;10107;51.198;6.824;2023-11-19T08:07:48;-21636.25;;;12.12;100.00
19890;BME280;10107;51.198;6.824;2023-11-19T08:11:50;-21640.50;;;12.28;100.00
19890;BME280;10107;51.198;6.824;2023-11-19T08:15:52;-21645.91;;;12.49;100.00
19890;BME280;10107;51.198;6.824;2023-11-19T08:19:53;-21653.69;;;12.79;100.00
19890;BME280;10107;51.198;6.824;2023-11-19T08:23:56;-21651.84;;;12.72;100.00
19890;BME280;10107;51.198;6.824;2023-11-19T08:27:58;-21647.34;;;12.55;100.00
19890;BME280;10107;51.198;6.824;2023-11-19T08:32:00;-21656.72;;;12.91;100.00
19890;BME280;10107;51.198;6.824;2023-11-19T08:36:02;-21665.84;;;13.26;100.00
19890;BME280;10107;51.198;6.824;2023-11-19T08:40:07;-21663.97;;;13.19;100.00
19890;BME280;10107;51.198;6.824;2023-11-19T08:44:09;-21655.53;;;12.86;100.00
19890;BME280;10107;51.198;6.824;2023-11-19T08:48:11;-21728.50;;;15.71;100.00
19890;BME280;10107;51.198;6.824;2023-11-19T08:52:12;-21816.91;;;19.17;100.00
19890;BME280;10107;51.198;6.824;2023-11-19T08:56:15;-21769.56;;;17.31;100.00
19890;BME280;10107;51.198;6.824;2023-11-19T09:00:18;-21730.59;;;15.79;100.00
19890;BME280;10107;51.198;6.824;2023-11-19T09:04:21;-21690.22;;;14.21;100.00
19890;BME280;10107;51.198;6.824;2023-11-19T09:08:23;-21669.00;;;13.39;100.00
19890;BME280;10107;51.198;6.824;2023-11-19T09:12:26;-21678.22;;;13.75;100.00
19890;BME280;10107;51.198;6.824;2023-11-19T09:16:28;-21695.47;;;14.42;100.00
19890;BME280;10107;51.198;6.824;2023-11-19T09:20:29;-21684.03;;;13.97;100.00
19890;BME280;10107;51.198;6.824;2023-11-19T09:24:37;-21683.50;;;13.95;100.00
19890;BME280;10107;51.198;6.824;2023-11-19T09:28:40;-21684.69;;;14.00;100.00
19890;BME280;10107;51.198;6.824;2023-11-19T09:32:42;-21685.34;;;14.02;100.00
19890;BME280;10107;51.198;6.824;2023-11-19T09:36:44;-21689.28;;;14.18;100.00
19890;BME280;10107;51.198;6.824;2023-11-19T09:40:45;-21691.66;;;14.27;100.00
19890;BME280;10107;51.198;6.824;2023-11-19T09:44:49;-21676.25;;;13.67;100.00
19890;BME280;10107;51.198;6.824;2023-11-19T09:48:52;-21665.84;;;13.26;100.00
19890;BME280;10107;51.198;6.824;2023-11-19T09:52:55;-21659.75;;;13.03;100.00
19890;BME280;10107;51.198;6.824;2023-11-19T09:56:58;-21662.00;;;13.12;100.00
19890;BME280;10107;51.198;6.824;2023-11-19T10:01:04;-21671.91;;;13.50;100.00
19890;BME280;10107;51.198;6.824;2023-11-19T10:05:07;-21669.78;;;13.42;100.00
19890;BME280;10107;51.198;6.824;2023-11-19T10:09:12;-21668.75;;;13.38;100.00
19890;BME280;10107;51.198;6.824;2023-11-19T10:13:15;-21674.94;;;13.62;100.00
19890;BME280;10107;51.198;6.824;2023-11-19T10:17:19;-21671.91;;;13.50;100.00
19890;BME280;10107;51.198;6.824;2023-11-19T10:21:20;-21669.41;;;13.40;100.00
19890;BME280;10107;51.198;6.824;2023-11-19T10:25:23;-21683.09;;;13.94;100.00
19890;BME280;10107;51.198;6.824;2023-11-19T10:29:25;-21702.06;;;14.68;100.00
19890;BME280;10107;51.198;6.824;2023-11-19T10:33:29;-21703.50;;;14.73;100.00
19890;BME280;10107;51.198;6.824;2023-11-19T10:37:32;-21699.97;;;14.59;100.00
19890;BME280;10107;51.198;6.824;2023-11-19T10:41:35;-21689.81;;;14.20;100.00
19890;BME280;10107;51.198;6.824;2023-11-19T10:45:38;-21678.09;;;13.74;100.00
19890;BME280;10107;51.198;6.824;2023-11-19T10:49:41;-21674.53;;;13.60;100.00
19890;BME280;10107;51.198;6.824;2023-11-19T10:53:44;-21678.38;;;13.75;100.00
19890;BME280;10107;51.198;6.824;2023-11-19T10:57:46;-21681.38;;;13.87;100.00
19890;BME280;10107;51.198;6.824;2023-11-19T11:01:53;-21681.38;;;13.87;100.00
19890;BME280;10107;51.198;6.824;2023-11-19T11:05:57;-21704.31;;;14.76;100.00
19890;BME280;10107;51.198;6.824;2023-11-19T11:09:59;-21711.28;;;15.03;100.00
19890;BME280;10107;51.198;6.824;2023-11-19T11:14:02;-21698.38;;;14.53;100.00
19890;BME280;10107;51.198;6.824;2023-11-19T11:18:07;-21687.06;;;14.09;100.00
19890;BME280;10107;51.198;6.824;2023-11-19T11:22:13;-21677.44;;;13.72;100.00
19890;BME280;10107;51.198;6.824;2023-11-19T11:26:30;-21695.34;;;14.41;100.00
19890;BME280;10107;51.198;6.824;2023-11-19T11:30:46;-21718.25;;;15.31;100.00
19890;BME280;10107;51.198;6.824;2023-11-19T11:39:15;-21718.91;;;15.33;100.00
19890;BME280;10107;51.198;6.824;2023-11-19T11:43:46;-21710.22;;;14.99;100.00
19890;BME280;10107;51.198;6.824;2023-11-19T11:48:14;-21697.84;;;14.51;100.00
19890;BME280;10107;51.198;6.824;2023-11-19T11:52:16;-21686.91;;;14.09;100.00
19890;BME280;10107;51.198;6.824;2023-11-19T11:56:19;-21680.06;;;13.82;100.00
19890;BME280;10107;51.198;6.824;2023-11-19T12:00:22;-21685.47;;;14.03;100.00
19890;BME280;10107;51.198;6.824;2023-11-19T12:04:25;-21690.59;;;14.23;100.00
19890;BME280;10107;51.198;6.824;2023-11-19T12:08:29;-21690.34;;;14.22;100.00
19890;BME280;10107;51.198;6.824;2023-11-19T12:12:33;-21692.31;;;14.30;100.00
19890;BME280;10107;51.198;6.824;2023-11-19T12:16:36;-21693.50;;;14.34;100.00
19890;BME280;10107;51.198;6.824;2023-11-19T12:20:38;-21695.34;;;14.41;100.00
19890;BME280;10107;51.198;6.824;2023-11-19T12:24:40;-21694.81;;;14.39;100.00
19890;BME280;10107;51.198;6.824;2023-11-19T12:28:57;-21697.44;;;14.50;100.00
19890;BME280;10107;51.198;6.824;2023-11-19T12:32:59;-21692.84;;;14.32;100.00
19890;BME280;10107;51.198;6.824;2023-11-19T12:37:03;-21685.06;;;14.01;100.00
19890;BME280;10107;51.198;6.824;2023-11-19T12:41:05;-21674.94;;;13.62;100.00
19890;BME280;10107;51.198;6.824;2023-11-19T12:45:09;-21668.06;;;13.35;100.00
19890;BME280;10107;51.198;6.824;2023-11-19T12:49:12;-21660.81;;;13.07;100.00
19890;BME280;10107;51.198;6.824;2023-11-19T12:53:14;-21654.22;;;12.81;100.00
19890;BME280;10107;51.198;6.824;2023-11-19T12:57:16;-21653.81;;;12.80;100.00
19890;BME280;10107;51.198;6.824;2023-11-19T13:01:20;-21663.84;;;13.19;100.00
19890;BME280;10107;51.198;6.824;2023-11-19T13:05:27;-21668.06;;;13.35;100.00
19890;BME280;10107;51.198;6.824;2023-11-19T13:09:29;-21666.34;;;13.28;100.00
19890;BME280;10107;51.198;6.824;2023-11-19T13:13:31;-21662.13;;;13.12;100.00
19890;BME280;10107;51.198;6.824;2023-11-19T13:17:34;-21659.75;;;13.03;100.00
19890;BME280;10107;51.198;6.824;2023-11-19T13:21:36;-21658.19;;;12.97;100.00
19890;BME280;10107;51.198;6.824;2023-11-19T13:25:38;-21658.56;;;12.98;100.00
19890;BME280;10107;51.198;6.824;2023-11-19T13:29:39;-21662.28;;;13.13;100.00
19890;BME280;10107;51.198;6.824;2023-11-19T13:33:42;-21664.78;;;13.22;100.00
19890;BME280;10107;51.198;6.824;2023-11-19T13:37:44;-21665.44;;;13.25;100.00
19890;BME280;10107;51.198;6.824;2023-11-19T13:41:46;-21664.63;;;13.22;100.00
19890;BME280;10107;51.198;6.824;2023-11-19T13:45:48;-21660.56;;;13.06;100.00
19890;BME280;10107;51.198;6.824;2023-11-19T13:49:50;-21657.78;;;12.95;100.00
19890;BME280;10107;51.198;6.824;2023-11-19T13:53:53;-21655.94;;;12.88;100.00
19890;BME280;10107;51.198;6.824;2023-11-19T13:57:54;-21651.84;;;12.72;100.00
19890;BME280;10107;51.198;6.824;2023-11-19T14:01:56;-21648.16;;;12.58;100.00
19890;BME280;10107;51.198;6.824;2023-11-19T14:05:59;-21645.91;;;12.49;100.00
19890;BME280;10107;51.198;6.824;2023-11-19T14:10:01;-21642.59;;;12.36;100.00
19890;BME280;10107;51.198;6.824;2023-11-19T14:14:03;-21641.03;;;12.30;100.00
19890;BME280;10107;51.198;6.824;2023-11-19T14:18:05;-21639.44;;;12.24;100.00
19890;BME280;10107;51.198;6.824;2023-11-19T14:22:08;-21637.44;;;12.16;100.00
19890;BME280;10107;51.198;6.824;2023-11-19T14:26:09;-21634.69;;;12.05;100.00
19890;BME280;10107;51.198;6.824;2023-11-19T14:30:12;-21630.97;;;11.91;100.00
19890;BME280;10107;51.198;6.824;2023-11-19T14:34:14;-21627.00;;;11.76;100.00
19890;BME280;10107;51.198;6.824;2023-11-19T14:38:17;-21623.56;;;11.62;100.00
19890;BME280;10107;51.198;6.824;2023-11-19T14:42:19;-21620.91;;;11.52;100.00
19890;BME280;10107;51.198;6.824;2023-11-19T14:46:21;-21618.00;;;11.41;100.00
19890;BME280;10107;51.198;6.824;2023-11-19T14:50:22;-21615.09;;;11.29;100.00
19890;BME280;10107;51.198;6.824;2023-11-19T14:54:25;-21613.91;;;11.25;100.00
19890;BME280;10107;51.198;6.824;2023-11-19T14:58:27;-21614.97;;;11.29;100.00
19890;BME280;10107;51.198;6.824;2023-11-19T15:02:28;-21613.38;;;11.23;100.00
19890;BME280;10107;51.198;6.824;2023-11-19T15:06:30;-21611.00;;;11.14;100.00
19890;BME280;10107;51.198;6.824;2023-11-19T15:10:35;-21610.06;;;11.10;100.00
19890;BME280;10107;51.198;6.824;2023-11-19T15:14:38;-21611.00;;;11.14;100.00
19890;BME280;10107;51.198;6.824;2023-11-19T15:18:39;-21610.06;;;11.10;100.00
19890;BME280;10107;51.198;6.824;2023-11-19T15:22:41;-21608.88;;;11.05;100.00
19890;BME280;10107;51.198;6.824;2023-11-19T15:26:44;-21607.16;;;10.99;100.00
19890;BME280;10107;51.198;6.824;2023-11-19T15:30:46;-21606.75;;;10.97;100.00
19890;BME280;10107;51.198;6.824;2023-11-19T15:34:47;-21605.84;;;10.94;100.00
19890;BME280;10107;51.198;6.824;2023-11-19T15:38:49;-21604.38;;;10.88;100.00
19890;BME280;10107;51.198;6.824;2023-11-19T15:42:52;-21603.59;;;10.85;100.00
19890;BME280;10107;51.198;6.824;2023-11-19T15:46:55;-21603.84;;;10.86;100.00
19890;BME280;10107;51.198;6.824;2023-11-19T15:50:57;-21603.59;;;10.85;100.00
19890;BME280;10107;51.198;6.824;2023-11-19T15:54:59;-21602.13;;;10.79;100.00
19890;BME280;10107;51.198;6.824;2023-11-19T15:59:02;-21601.34;;;10.76;100.00
19890;BME280;10107;51.198;6.824;2023-11-19T16:03:04;-21601.34;;;10.76;100.00
19890;BME280;10107;51.198;6.824;2023-11-19T16:07:07;-21600.81;;;10.74;100.00
19890;BME280;10107;51.198;6.824;2023-11-19T16:11:09;-21600.53;;;10.73;100.00
19890;BME280;10107;51.198;6.824;2023-11-19T16:15:14;-21601.06;;;10.75;100.00
19890;BME280;10107;51.198;6.824;2023-11-19T16:19:16;-21601.59;;;10.77;100.00
19890;BME280;10107;51.198;6.824;2023-11-19T16:23:17;-21602.00;;;10.79;100.00
19890;BME280;10107;51.198;6.824;2023-11-19T16:27:20;-21601.34;;;10.76;100.00
19890;BME280;10107;51.198;6.824;2023-11-19T16:31:23;-21599.88;;;10.70;100.00
19890;BME280;10107;51.198;6.824;2023-11-19T16:35:25;-21599.47;;;10.69;100.00
19890;BME280;10107;51.198;6.824;2023-11-19T16:39:26;-21598.03;;;10.63;100.00
19890;BME280;10107;51.198;6.824;2023-11-19T16:43:56;-21598.28;;;10.64;100.00
19890;BME280;10107;51.198;6.824;2023-11-19T16:48:04;-21597.91;;;10.63;100.00
19890;BME280;10107;51.198;6.824;2023-11-19T16:52:06;-21597.91;;;10.63;100.00
19890;BME280;10107;51.198;6.824;2023-11-19T16:56:08;-21599.22;;;10.68;100.00
19890;BME280;10107;51.198;6.824;2023-11-19T17:00:10;-21600.28;;;10.72;100.00
19890;BME280;10107;51.198;6.824;2023-11-19T17:04:14;-21600.81;;;10.74;100.00
19890;BME280;10107;51.198;6.824;2023-11-19T17:08:17;-21601.72;;;10.78;100.00
19890;BME280;10107;51.198;6.824;2023-11-19T17:12:18;-21603.06;;;10.83;100.00
19890;BME280;10107;51.198;6.824;2023-11-19T17:16:20;-21603.31;;;10.84;100.00
19890;BME280;10107;51.198;6.824;2023-11-19T17:20:23;-21602.41;;;10.80;100.00
19890;BME280;10107;51.198;6.824;2023-11-19T17:24:25;-21601.47;;;10.77;100.00
19890;BME280;10107;51.198;6.824;2023-11-19T17:28:26;-21601.47;;;10.77;100.00
19890;BME280;10107;51.198;6.824;2023-11-19T17:32:28;-21602.00;;;10.79;100.00
19890;BME280;10107;51.198;6.824;2023-11-19T17:36:32;-21601.19;;;10.76;100.00
19890;BME280;10107;51.198;6.824;2023-11-19T17:40:34;-21600.41;;;10.73;100.00
19890;BME280;10107;51.198;6.824;2023-11-19T17:44:36;-21600.41;;;10.73;100.00
19890;BME280;10107;51.198;6.824;2023-11-19T17:48:37;-21600.53;;;10.73;100.00
19890;BME280;10107;51.198;6.824;2023-11-19T17:52:41;-21601.06;;;10.75;100.00
19890;BME280;10107;51.198;6.824;2023-11-19T17:56:42;-21602.13;;;10.79;100.00
19890;BME280;10107;51.198;6.824;2023-11-19T18:00:44;-21604.66;;;10.89;100.00
19890;BME280;10107;51.198;6.824;2023-11-19T18:04:46;-21606.09;;;10.95;100.00
19890;BME280;10107;51.198;6.824;2023-11-19T18:08:49;-21606.38;;;10.96;100.00
19890;BME280;10107;51.198;6.824;2023-11-19T18:12:51;-21607.69;;;11.01;100.00
19890;BME280;10107;51.198;6.824;2023-11-19T18:16:53;-21607.69;;;11.01;100.00
19890;BME280;10107;51.198;6.824;2023-11-19T18:20:55;-21607.97;;;11.02;100.00
19890;BME280;10107;51.198;6.824;2023-11-19T18:24:58;-21610.06;;;11.10;100.00
19890;BME280;10107;51.198;6.824;2023-11-19T18:29:00;-21610.47;;;11.12;100.00
19890;BME280;10107;51.198;6.824;2023-11-19T18:33:02;-21609.81;;;11.09;100.00
19890;BME280;10107;51.198;6.824;2023-11-19T18:37:03;-21606.09;;;10.95;100.00
19890;BME280;10107;51.198;6.824;2023-11-19T18:41:07;-21603.06;;;10.83;100.00
19890;BME280;10107;51.198;6.824;2023-11-19T18:45:09;-21600.69;;;10.74;100.00
19890;BME280;10107;51.198;6.824;2023-11-19T18:49:11;-21598.44;;;10.65;100.00
19890;BME280;10107;51.198;6.824;2023-11-19T18:53:12;-21597.22;;;10.60;100.00
19890;BME280;10107;51.198;6.824;2023-11-19T18:57:15;-21595.78;;;10.55;100.00
19890;BME280;10107;51.198;6.824;2023-11-19T19:01:17;-21595.78;;;10.55;100.00
19890;BME280;10107;51.198;6.824;2023-11-19T19:05:18;-21595.63;;;10.54;100.00
19890;BME280;10107;51.198;6.824;2023-11-19T19:09:20;-21594.44;;;10.49;100.00
19890;BME280;10107;51.198;6.824;2023-11-19T19:13:23;-21593.53;;;10.46;100.00
19890;BME280;10107;51.198;6.824;2023-11-19T19:17:25;-21591.53;;;10.38;100.00
19890;BME280;10107;51.198;6.824;2023-11-19T19:21:29;-21590.47;;;10.34;100.00
19890;BME280;10107;51.198;6.824;2023-11-19T19:25:31;-21589.16;;;10.29;100.00
19890;BME280;10107;51.198;6.824;2023-11-19T19:29:34;-21587.56;;;10.23;100.00
19890;BME280;10107;51.198;6.824;2023-11-19T19:33:35;-21586.38;;;10.18;100.00
19890;BME280;10107;51.198;6.824;2023-11-19T19:37:37;-21585.31;;;10.14;100.00
19890;BME280;10107;51.198;6.824;2023-11-19T19:41:38;-21583.84;;;10.08;100.00
19890;BME280;10107;51.198;6.824;2023-11-19T19:45:41;-21582.78;;;10.04;100.00
19890;BME280;10107;51.198;6.824;2023-11-19T19:49:43;-21581.47;;;9.99;100.00
19890;BME280;10107;51.198;6.824;2023-11-19T19:53:45;-21581.84;;;10.01;100.00
19890;BME280;10107;51.198;6.824;2023-11-19T19:57:48;-21580.94;;;9.97;100.00
19890;BME280;10107;51.198;6.824;2023-11-19T20:01:50;-21581.84;;;10.01;100.00
19890;BME280;10107;51.198;6.824;2023-11-19T20:05:55;-21581.84;;;10.01;100.00
19890;BME280;10107;51.198;6.824;2023-11-19T20:09:57;-21582.38;;;10.03;100.00
19890;BME280;10107;51.198;6.824;2023-11-19T20:13:59;-21581.59;;;10.00;100.00
19890;BME280;10107;51.198;6.824;2023-11-19T20:18:02;-21581.72;;;10.00;100.00
19890;BME280;10107;51.198;6.824;2023-11-19T20:22:04;-21582.53;;;10.03;100.00
19890;BME280;10107;51.198;6.824;2023-11-19T20:26:06;-21582.38;;;10.03;100.00
19890;BME280;10107;51.198;6.824;2023-11-19T20:30:08;-21582.53;;;10.03;100.00
19890;BME280;10107;51.198;6.824;2023-11-19T20:34:11;-21583.06;;;10.05;100.00
19890;BME280;10107;51.198;6.824;2023-11-19T20:38:13;-21582.78;;;10.04;100.00
19890;BME280;10107;51.198;6.824;2023-11-19T20:42:16;-21583.06;;;10.05;100.00
19890;BME280;10107;51.198;6.824;2023-11-19T20:46:18;-21583.84;;;10.08;100.00
19890;BME280;10107;51.198;6.824;2023-11-19T20:50:21;-21584.13;;;10.09;100.00
19890;BME280;10107;51.198;6.824;2023-11-19T20:54:25;-21585.31;;;10.14;100.00
19890;BME280;10107;51.198;6.824;2023-11-19T20:58:27;-21585.69;;;10.16;100.00